Time;durP1;ratioP1;P1;durP2;ratioP2;P2;SDS_P1;SDS_P2;PMS_P1;PMS_P2;Temp;Humidity;BMP_temperature;BMP_pressure;BME280_temperature;BME280_humidity;BME280_pressure;Samples;Min_cycle;Max_cycle;Signal;HPM_P1;HPM_P2
2023/05/01 08:55:43;;;;;;;0.30;0.30;;;;;;;;;;7406404;19;20457;-90
2023/05/01 08:58:56;;;;;;;0.40;0.40;;;;;;;;;;7409287;19;20155;-88
2023/05/01 09:01:32;;;;;;;0.27;0.27;;;;;;;;;;7405409;19;20177;-90
2023/05/01 09:04:27;;;;;;;0.30;0.30;;;;;;;;;;7403125;19;20144;-90
2023/05/01 09:12:22;;;;;;;0.30;0.30;;;;;;;;;;7409914;19;20196;-96
2023/05/01 09:21:30;;;;;;;0.40;0.40;;;;;;;;;;7434881;19;20140;-96
2023/05/01 09:24:05;;;;;;;0.30;0.30;;;;;;;;;;7436756;19;20144;-96
2023/05/01 09:26:37;;;;;;;0.40;0.40;;;;;;;;;;7435824;19;20149;-96
2023/05/01 09:29:10;;;;;;;0.20;0.20;;;;;;;;;;7432103;19;20156;-96
2023/05/01 09:44:20;;;;;;;0.80;0.60;;;;;;;;;;7398039;19;20142;-91
2023/05/01 09:47:33;;;;;;;;;;;;;;;;;;;;;
2023/05/01 09:50:24;;;;;;;;;;;;;;;;;;;;;
2023/05/01 09:53:13;;;;;;;0.30;0.30;;;;;;;;;;7399737;19;20169;-90
2023/05/01 09:55:40;;;;;;;0.30;0.30;;;;;;;;;;7400993;19;20231;-89
2023/05/01 09:58:40;;;;;;;0.63;0.50;;;;;;;;;;7399794;19;20219;-91
2023/05/01 10:01:07;;;;;;;0.53;0.53;;;;;;;;;;7397255;19;20604;-92
2023/05/01 10:03:34;;;;;;;0.30;0.30;;;;;;;;;;7395496;19;20141;-88
2023/05/01 10:06:02;;;;;;;0.30;0.30;;;;;;;;;;7404233;19;20173;-91
2023/05/01 10:08:49;;;;;;;0.30;0.30;;;;;;;;;;7408872;19;20140;-87
2023/05/01 10:11:15;;;;;;;0.40;0.40;;;;;;;;;;7412072;19;20197;-88
2023/05/01 10:13:42;;;;;;;0.30;0.30;;;;;;;;;;7399513;19;20152;-87
2023/05/01 10:16:28;;;;;;;0.30;0.30;;;;;;;;;;7398930;19;20173;-86
2023/05/01 10:18:58;;;;;;;0.30;0.30;;;;;;;;;;7402636;19;20143;-88
2023/05/01 10:21:27;;;;;;;0.63;0.63;;;;;;;;;;7404582;19;20143;-86
2023/05/01 10:23:54;;;;;;;0.30;0.30;;;;;;;;;;7403626;19;20152;-85
2023/05/01 10:26:21;;;;;;;0.40;0.40;;;;;;;;;;7404543;19;20176;-85
2023/05/01 10:28:48;;;;;;;0.67;0.67;;;;;;;;;;7410668;19;20137;-86
2023/05/01 10:31:15;;;;;;;0.30;0.30;;;;;;;;;;7403278;19;20129;-89
2023/05/01 10:33:43;;;;;;;0.80;0.80;;;;;;;;;;7392834;19;20141;-88
2023/05/01 10:36:22;;;;;;;0.30;0.30;;;;;;;;;;7402299;19;20176;-89
2023/05/01 10:38:48;;;;;;;0.30;0.30;;;;;;;;;;7401624;19;20165;-88
2023/05/01 10:41:15;;;;;;;0.30;0.30;;;;;;;;;;7402060;19;20140;-88
2023/05/01 10:43:42;;;;;;;0.30;0.30;;;;;;;;;;7403795;19;20141;-89
2023/05/01 10:46:09;;;;;;;0.30;0.30;;;;;;;;;;7401687;19;20171;-88
2023/05/01 10:48:39;;;;;;;0.40;0.40;;;;;;;;;;7404245;19;20136;-90
2023/05/01 10:51:26;;;;;;;0.40;0.40;;;;;;;;;;7404610;19;20151;-89
2023/05/01 10:54:12;;;;;;;0.30;0.30;;;;;;;;;;7398039;19;20204;-88
2023/05/01 10:56:42;;;;;;;0.37;0.37;;;;;;;;;;7400300;19;20152;-89
2023/05/01 10:59:10;;;;;;;0.30;0.30;;;;;;;;;;7404279;19;20537;-89
2023/05/01 11:01:44;;;;;;;0.30;0.30;;;;;;;;;;7396297;19;20511;-89
2023/05/01 11:04:23;;;;;;;0.40;0.40;;;;;;;;;;7400608;19;20140;-89
2023/05/01 11:07:07;;;;;;;0.30;0.30;;;;;;;;;;7398667;19;20216;-88
2023/05/01 11:09:35;;;;;;;0.50;0.50;;;;;;;;;;7397725;19;20140;-89
2023/05/01 11:12:03;;;;;;;0.40;0.40;;;;;;;;;;7400347;19;20149;-89
2023/05/01 11:14:56;;;;;;;0.77;0.60;;;;;;;;;;7397947;19;20185;-89
2023/05/01 11:17:38;;;;;;;0.30;0.30;;;;;;;;;;7401770;19;20196;-88
2023/05/01 11:20:12;;;;;;;1.93;0.97;;;;;;;;;;7403195;19;20141;-88
2023/05/01 11:22:44;;;;;;;0.40;0.40;;;;;;;;;;7401505;19;20137;-88
2023/05/01 11:25:21;;;;;;;0.50;0.50;;;;;;;;;;7400713;19;20153;-89
2023/05/01 11:27:50;;;;;;;0.30;0.30;;;;;;;;;;7397152;19;20133;-89
2023/05/01 11:30:17;;;;;;;0.23;0.23;;;;;;;;;;7398463;19;20160;-88
2023/05/01 11:32:45;;;;;;;0.30;0.30;;;;;;;;;;7400804;19;20141;-90
2023/05/01 11:35:25;;;;;;;0.30;0.30;;;;;;;;;;7392912;19;20538;-89
2023/05/01 11:37:54;;;;;;;0.30;0.30;;;;;;;;;;7397519;19;20145;-90
2023/05/01 11:40:26;;;;;;;0.30;0.30;;;;;;;;;;7417408;19;20129;-90
2023/05/01 11:43:06;;;;;;;0.30;0.30;;;;;;;;;;7396470;19;20720;-90
2023/05/01 11:45:35;;;;;;;0.50;0.50;;;;;;;;;;7390543;19;20160;-90
2023/05/01 11:48:02;;;;;;;0.40;0.40;;;;;;;;;;7397051;19;20149;-91
2023/05/01 11:50:35;;;;;;;0.30;0.30;;;;;;;;;;7390855;19;20133;-89
2023/05/01 11:53:16;;;;;;;0.30;0.30;;;;;;;;;;7395107;19;20473;-89
2023/05/01 11:55:43;;;;;;;0.40;0.40;;;;;;;;;;7388323;19;20140;-90
2023/05/01 11:58:10;;;;;;;0.60;0.60;;;;;;;;;;7397921;19;20144;-89
2023/05/01 12:00:41;;;;;;;0.30;0.30;;;;;;;;;;7397218;19;20160;-89
2023/05/01 12:03:10;;;;;;;0.30;0.30;;;;;;;;;;7394608;19;20140;-89
2023/05/01 12:05:41;;;;;;;0.30;0.30;;;;;;;;;;7394559;19;20180;-89
2023/05/01 12:08:14;;;;;;;0.47;0.47;;;;;;;;;;7392002;19;20149;-90
2023/05/01 12:10:42;;;;;;;0.30;0.30;;;;;;;;;;7389107;19;20136;-90
2023/05/01 12:13:10;;;;;;;0.30;0.30;;;;;;;;;;7395766;19;20197;-90
2023/05/01 12:16:03;;;;;;;0.30;0.30;;;;;;;;;;7395873;19;20145;-89
2023/05/01 12:18:30;;;;;;;0.30;0.30;;;;;;;;;;7397217;19;20160;-89
2023/05/01 12:20:57;;;;;;;0.30;0.30;;;;;;;;;;7399432;19;20766;-89
2023/05/01 12:23:36;;;;;;;0.30;0.30;;;;;;;;;;7391635;19;20132;-87
2023/05/01 12:26:17;;;;;;;0.30;0.30;;;;;;;;;;7388060;19;20265;-89
2023/05/01 12:28:53;;;;;;;0.30;0.30;;;;;;;;;;7386808;19;20133;-89
2023/05/01 12:31:19;;;;;;;0.40;0.40;;;;;;;;;;7387924;19;20132;-87
2023/05/01 12:33:57;;;;;;;0.80;0.80;;;;;;;;;;7386186;19;20143;-89
2023/05/01 12:36:27;;;;;;;0.35;0.35;;;;;;;;;;7388253;19;20226;-89
2023/05/01 12:38:59;;;;;;;0.30;0.30;;;;;;;;;;7391955;19;20156;-88
2023/05/01 12:41:43;;;;;;;0.30;0.30;;;;;;;;;;7395577;19;20168;-90
2023/05/01 12:44:19;;;;;;;0.30;0.30;;;;;;;;;;7386961;19;20160;-91
2023/05/01 12:46:53;;;;;;;0.40;0.40;;;;;;;;;;7386192;19;20152;-89
2023/05/01 12:49:22;;;;;;;0.60;0.60;;;;;;;;;;7390991;19;20137;-88
2023/05/01 12:51:50;;;;;;;0.43;0.43;;;;;;;;;;7383128;19;20164;-89
2023/05/01 12:54:22;;;;;;;0.30;0.30;;;;;;;;;;7377454;19;20141;-88
2023/05/01 12:56:51;;;;;;;0.30;0.30;;;;;;;;;;7383525;19;20153;-89
2023/05/01 12:59:23;;;;;;;1.13;0.68;;;;;;;;;;7385471;19;20128;-89
2023/05/01 13:02:00;;;;;;;0.30;0.30;;;;;;;;;;7382989;19;20121;-89
2023/05/01 13:04:27;;;;;;;0.57;0.57;;;;;;;;;;7384135;19;20168;-88
2023/05/01 13:06:57;;;;;;;0.30;0.30;;;;;;;;;;7368551;19;20168;-86
2023/05/01 13:09:31;;;;;;;0.30;0.30;;;;;;;;;;7390908;19;20137;-90
2023/05/01 13:12:03;;;;;;;0.30;0.30;;;;;;;;;;7388568;19;20155;-89
2023/05/01 13:14:38;;;;;;;0.37;0.37;;;;;;;;;;7365654;19;20177;-88
2023/05/01 13:17:08;;;;;;;0.30;0.30;;;;;;;;;;7380039;19;20136;-88
2023/05/01 13:19:35;;;;;;;0.30;0.30;;;;;;;;;;7390634;19;20229;-89
2023/05/01 13:22:03;;;;;;;0.40;0.40;;;;;;;;;;7393036;19;20527;-89
2023/05/01 13:24:41;;;;;;;0.30;0.30;;;;;;;;;;7390116;19;20176;-91
2023/05/01 13:27:08;;;;;;;0.30;0.30;;;;;;;;;;7393864;19;20137;-90
2023/05/01 13:29:35;;;;;;;1.50;0.60;;;;;;;;;;7396707;19;20148;-89
2023/05/01 13:32:06;;;;;;;0.30;0.30;;;;;;;;;;7391754;19;20137;-91
2023/05/01 13:34:33;;;;;;;0.30;0.30;;;;;;;;;;7385746;19;20616;-91
2023/05/01 13:37:01;;;;;;;0.40;0.40;;;;;;;;;;7396374;19;20140;-90
2023/05/01 13:39:35;;;;;;;0.40;0.40;;;;;;;;;;7396373;19;20140;-90
2023/05/01 13:42:02;;;;;;;0.30;0.30;;;;;;;;;;7397138;19;20229;-91
2023/05/01 13:44:30;;;;;;;0.40;0.40;;;;;;;;;;7398289;19;20603;-91
2023/05/01 13:47:01;;;;;;;0.30;0.30;;;;;;;;;;7394760;19;20132;-91
2023/05/01 13:49:28;;;;;;;0.40;0.40;;;;;;;;;;7398041;19;20492;-90
2023/05/01 13:51:55;;;;;;;0.30;0.30;;;;;;;;;;7402597;19;20149;-89
2023/05/01 13:54:22;;;;;;;0.30;0.30;;;;;;;;;;7400343;19;20141;-91
2023/05/01 13:56:49;;;;;;;0.30;0.30;;;;;;;;;;7397530;19;20160;-89
2023/05/01 13:59:18;;;;;;;0.30;0.30;;;;;;;;;;7403116;19;20176;-89
2023/05/01 14:01:46;;;;;;;0.30;0.30;;;;;;;;;;7409708;19;20176;-87
2023/05/01 14:04:24;;;;;;;0.35;0.35;;;;;;;;;;7409863;19;20653;-87
2023/05/01 14:06:52;;;;;;;0.30;0.30;;;;;;;;;;7403949;19;20149;-87
2023/05/01 14:09:19;;;;;;;0.30;0.30;;;;;;;;;;7401696;19;20141;-87
2023/05/01 14:11:57;;;;;;;;;;;;;;;;;;;;;
2023/05/01 14:14:52;;;;;;;0.30;0.30;;;;;;;;;;7401541;19;20672;-86
2023/05/01 14:17:32;;;;;;;0.50;0.50;;;;;;;;;;7395278;19;20153;-87
2023/05/01 14:20:01;;;;;;;0.32;0.32;;;;;;;;;;7403315;19;20141;-87
2023/05/01 14:22:29;;;;;;;0.38;0.38;;;;;;;;;;7402770;19;20224;-86
2023/05/01 14:24:57;;;;;;;0.30;0.30;;;;;;;;;;7415063;19;20141;-88
2023/05/01 14:27:24;;;;;;;0.30;0.30;;;;;;;;;;7426499;19;20158;-89
2023/05/01 14:29:53;;;;;;;0.30;0.30;;;;;;;;;;7427660;19;20152;-87
2023/05/01 14:32:20;;;;;;;0.38;0.38;;;;;;;;;;7398643;19;20158;-89
2023/05/01 14:34:47;;;;;;;0.30;0.30;;;;;;;;;;7396314;19;20551;-86
2023/05/01 14:37:16;;;;;;;0.53;0.53;;;;;;;;;;7401912;19;20137;-87
2023/05/01 14:39:44;;;;;;;0.30;0.30;;;;;;;;;;7393385;19;20148;-86
2023/05/01 14:42:13;;;;;;;0.43;0.43;;;;;;;;;;7398599;19;20151;-86
2023/05/01 14:44:56;;;;;;;0.73;0.73;;;;;;;;;;7397347;19;20168;-85
2023/05/01 14:47:27;;;;;;;0.40;0.40;;;;;;;;;;7402125;19;20137;-89
2023/05/01 14:49:54;;;;;;;0.45;0.45;;;;;;;;;;7419863;19;20141;-88
2023/05/01 14:52:21;;;;;;;0.30;0.30;;;;;;;;;;7418682;19;20165;-87
2023/05/01 14:54:47;;;;;;;0.73;0.73;;;;;;;;;;7410927;19;20801;-86
2023/05/01 14:57:16;;;;;;;0.80;0.80;;;;;;;;;;7398681;19;20129;-87
2023/05/01 14:59:52;;;;;;;0.40;0.40;;;;;;;;;;7398532;19;20137;-86
2023/05/01 15:02:26;;;;;;;0.40;0.40;;;;;;;;;;7393160;19;20136;-87
2023/05/01 15:04:56;;;;;;;0.30;0.30;;;;;;;;;;7393075;19;20195;-87
2023/05/01 15:07:23;;;;;;;0.30;0.30;;;;;;;;;;7394821;19;20433;-88
2023/05/01 15:09:50;;;;;;;0.30;0.30;;;;;;;;;;7394976;19;20136;-87
2023/05/01 15:12:18;;;;;;;0.30;0.30;;;;;;;;;;7391786;19;20629;-87
2023/05/01 15:14:45;;;;;;;0.30;0.30;;;;;;;;;;7396987;19;20160;-85
2023/05/01 15:17:12;;;;;;;0.30;0.30;;;;;;;;;;7398686;19;20624;-85
2023/05/01 15:20:09;;;;;;;;;;;;;;;;;;;;;
2023/05/01 15:22:54;;;;;;;0.30;0.30;;;;;;;;;;7394426;19;20172;-85
2023/05/01 15:25:33;;;;;;;0.30;0.30;;;;;;;;;;7395412;19;20232;-88
2023/05/01 15:28:19;;;;;;;0.30;0.30;;;;;;;;;;7397779;19;20136;-88
2023/05/01 15:30:52;;;;;;;0.50;0.50;;;;;;;;;;7400972;19;20178;-86
2023/05/01 15:33:28;;;;;;;0.30;0.30;;;;;;;;;;7398082;19;20522;-86
2023/05/01 15:35:55;;;;;;;0.40;0.40;;;;;;;;;;7397316;19;20224;-86
2023/05/01 15:38:22;;;;;;;0.47;0.47;;;;;;;;;;7400707;19;20523;-86
2023/05/01 15:40:50;;;;;;;0.30;0.30;;;;;;;;;;7397709;19;20137;-88
2023/05/01 15:43:16;;;;;;;0.30;0.30;;;;;;;;;;7398679;19;20133;-86
2023/05/01 15:45:43;;;;;;;2.30;1.47;;;;;;;;;;7395558;19;20172;-86
2023/05/01 15:48:10;;;;;;;0.63;0.60;;;;;;;;;;7397903;19;20141;-88
2023/05/01 15:50:37;;;;;;;0.87;0.87;;;;;;;;;;7398538;19;20145;-86
2023/05/01 15:53:04;;;;;;;0.40;0.40;;;;;;;;;;7397512;19;20145;-87
2023/05/01 15:55:31;;;;;;;0.30;0.30;;;;;;;;;;7392485;19;20152;-87
2023/05/01 15:57:58;;;;;;;0.40;0.40;;;;;;;;;;7394438;19;20128;-88
2023/05/01 16:00:25;;;;;;;0.30;0.30;;;;;;;;;;7395965;19;20644;-91
2023/05/01 16:02:52;;;;;;;0.40;0.40;;;;;;;;;;7392687;19;20149;-91
2023/05/01 16:05:21;;;;;;;0.50;0.50;;;;;;;;;;7391386;19;20161;-92
2023/05/01 16:07:54;;;;;;;0.50;0.50;;;;;;;;;;7393366;19;20133;-91
2023/05/01 16:10:22;;;;;;;0.50;0.50;;;;;;;;;;7394286;19;20154;-93
2023/05/01 16:12:49;;;;;;;0.30;0.30;;;;;;;;;;7390235;19;20137;-93
2023/05/01 16:15:20;;;;;;;0.30;0.30;;;;;;;;;;7385583;19;20152;-92
2023/05/01 16:17:48;;;;;;;0.40;0.40;;;;;;;;;;7389240;19;20137;-91
2023/05/01 16:20:16;;;;;;;0.20;0.20;;;;;;;;;;7389274;19;20160;-92
2023/05/01 16:22:42;;;;;;;0.30;0.30;;;;;;;;;;7390162;19;20178;-91
2023/05/01 16:25:09;;;;;;;0.30;0.30;;;;;;;;;;7388103;19;20605;-92
2023/05/01 16:27:41;;;;;;;0.40;0.40;;;;;;;;;;7387460;19;20597;-92
2023/05/01 16:30:08;;;;;;;0.37;0.37;;;;;;;;;;7389267;19;20136;-92
2023/05/01 16:32:35;;;;;;;0.27;0.27;;;;;;;;;;7405092;19;20125;-91
2023/05/01 16:35:04;;;;;;;0.30;0.30;;;;;;;;;;7409431;19;20208;-92
2023/05/01 16:37:32;;;;;;;0.40;0.40;;;;;;;;;;7389423;19;20143;-93
2023/05/01 16:39:59;;;;;;;0.73;0.70;;;;;;;;;;7389154;19;20144;-92
2023/05/01 16:42:27;;;;;;;0.50;0.50;;;;;;;;;;7387737;19;20240;-91
2023/05/01 16:44:55;;;;;;;0.30;0.30;;;;;;;;;;7387397;19;20152;-90
2023/05/01 16:47:22;;;;;;;0.30;0.30;;;;;;;;;;7389964;19;20145;-91
2023/05/01 16:49:48;;;;;;;0.30;0.30;;;;;;;;;;7386378;19;20169;-92
2023/05/01 16:52:15;;;;;;;0.20;0.20;;;;;;;;;;7388062;19;20141;-90
2023/05/01 16:54:41;;;;;;;0.40;0.40;;;;;;;;;;7388923;19;20149;-92
2023/05/01 16:57:08;;;;;;;0.30;0.30;;;;;;;;;;7391234;19;20122;-90
2023/05/01 16:59:36;;;;;;;0.60;0.60;;;;;;;;;;7393035;19;20141;-91
2023/05/01 17:02:04;;;;;;;0.30;0.30;;;;;;;;;;7392113;19;20137;-90
2023/05/01 17:04:31;;;;;;;0.30;0.30;;;;;;;;;;7374829;19;20180;-90
2023/05/01 17:06:58;;;;;;;0.77;0.77;;;;;;;;;;7395318;19;20140;-93
2023/05/01 17:09:25;;;;;;;0.40;0.40;;;;;;;;;;7404073;19;20153;-95
2023/05/01 17:12:13;;;;;;;0.30;0.30;;;;;;;;;;7402773;19;20141;-94
2023/05/01 17:14:40;;;;;;;0.50;0.50;;;;;;;;;;7405421;19;20232;-94
2023/05/01 17:17:48;;;;;;;0.30;0.30;;;;;;;;;;7413684;19;20491;-95
2023/05/01 17:23:35;;;;;;;0.50;0.50;;;;;;;;;;7439693;19;20149;-96
2023/05/01 17:26:07;;;;;;;0.30;0.30;;;;;;;;;;7438101;19;20164;-96
2023/05/01 17:28:57;;;;;;;0.30;0.30;;;;;;;;;;7438297;19;20144;-96
2023/05/01 17:31:36;;;;;;;0.30;0.30;;;;;;;;;;7438964;19;20183;-96
2023/05/01 17:39:29;;;;;;;0.30;0.30;;;;;;;;;;7439039;19;20181;-96
2023/05/01 17:41:57;;;;;;;0.30;0.30;;;;;;;;;;7435528;19;20141;-96
2023/05/01 17:44:25;;;;;;;0.40;0.40;;;;;;;;;;7433700;19;20185;-96
2023/05/01 17:46:52;;;;;;;0.30;0.30;;;;;;;;;;7436858;19;20128;-96
2023/05/01 17:49:26;;;;;;;0.30;0.30;;;;;;;;;;7436681;19;20133;-95
2023/05/01 17:52:01;;;;;;;0.63;0.63;;;;;;;;;;7437104;19;20153;-96
2023/05/01 17:54:29;;;;;;;0.30;0.30;;;;;;;;;;7433349;19;20177;-96
2023/05/01 17:56:59;;;;;;;0.30;0.30;;;;;;;;;;7433089;19;20165;-96
2023/05/01 17:59:29;;;;;;;0.30;0.30;;;;;;;;;;7436532;19;20153;-96
2023/05/01 18:01:57;;;;;;;0.50;0.50;;;;;;;;;;7434718;19;20145;-96
2023/05/01 18:04:37;;;;;;;0.70;0.50;;;;;;;;;;7435713;19;20144;-96
2023/05/01 18:07:17;;;;;;;0.30;0.30;;;;;;;;;;7432856;19;20137;-96
2023/05/01 18:09:46;;;;;;;0.30;0.30;;;;;;;;;;7434925;19;20137;-96
2023/05/01 18:12:15;;;;;;;0.40;0.40;;;;;;;;;;7437814;19;20144;-96
2023/05/01 18:14:45;;;;;;;0.40;0.40;;;;;;;;;;7435581;19;20143;-96
2023/05/01 18:17:20;;;;;;;0.30;0.30;;;;;;;;;;7430552;19;20160;-96
2023/05/01 18:19:48;;;;;;;0.40;0.40;;;;;;;;;;7427323;19;20133;-96
2023/05/01 18:22:16;;;;;;;0.40;0.40;;;;;;;;;;7426314;19;20137;-96
